createdAt,value
2023-05-02T00:02:23.838Z,100943.88
2023-05-02T00:05:26.192Z,100940.56
2023-05-02T00:08:27.657Z,100943.53
2023-05-02T00:11:29.945Z,100950.38
2023-05-02T00:14:31.198Z,100950.34
2023-05-02T00:17:32.696Z,100943.66
2023-05-02T00:20:34.029Z,100947.50
2023-05-02T00:23:35.431Z,100935.59
2023-05-02T00:26:37.508Z,100946.31
2023-05-02T00:29:38.766Z,100939.69
2023-05-02T00:32:40.190Z,100937.97
2023-05-02T00:35:41.634Z,100937.69
2023-05-02T00:38:43.183Z,100947.50
2023-05-02T00:41:45.140Z,100938.13
2023-05-02T00:44:46.688Z,100944.41
2023-05-02T00:47:49.496Z,100950.94
2023-05-02T00:50:51.366Z,100949.81
2023-05-02T00:53:53.561Z,100943.41
2023-05-02T00:56:55.553Z,100947.28
2023-05-02T00:59:57.362Z,100939.63
2023-05-02T01:03:10.401Z,100941.84
2023-05-02T01:06:22.861Z,100942.97
2023-05-02T01:09:34.939Z,100950.41
2023-05-02T01:12:42.659Z,100945.00
2023-05-02T01:15:45.351Z,100948.13
2023-05-02T01:18:47.805Z,100952.25
2023-05-02T01:21:50.879Z,100950.91
2023-05-02T01:25:00.251Z,100950.97
2023-05-02T01:28:14.730Z,100960.91
2023-05-02T01:31:17.943Z,100955.38
2023-05-02T01:34:21.918Z,100966.94
2023-05-02T01:37:24.343Z,100962.22
2023-05-02T01:40:26.338Z,100965.81
2023-05-02T01:43:28.066Z,100973.19
2023-05-02T01:46:33.143Z,100972.34
2023-05-02T01:49:36.287Z,100970.69
2023-05-02T01:52:38.218Z,100977.28
2023-05-02T01:55:41.989Z,100981.66
2023-05-02T01:58:45.257Z,100991.78
2023-05-02T02:01:49.840Z,100992.56
2023-05-02T02:04:53.163Z,100987.25
2023-05-02T02:07:54.524Z,100998.47
2023-05-02T02:11:00.376Z,100991.84
2023-05-02T02:14:07.105Z,101008.00
2023-05-02T02:17:15.832Z,101013.72
2023-05-02T02:20:18.536Z,101012.00
2023-05-02T02:23:22.707Z,101005.94
2023-05-02T02:26:24.172Z,101006.19
2023-05-02T02:29:25.638Z,101008.63
2023-05-02T02:32:27.703Z,101008.56
2023-05-02T02:35:34.680Z,101010.75
2023-05-02T02:38:42.894Z,101015.94
2023-05-02T02:41:55.031Z,101019.75
2023-05-02T02:45:04.729Z,101025.19
2023-05-02T02:48:19.186Z,101033.38
2023-05-02T02:51:29.443Z,101038.03
2023-05-02T02:54:35.057Z,101045.69
2023-05-02T02:57:40.885Z,101047.78
2023-05-02T03:00:42.524Z,101055.69
2023-05-02T03:03:45.195Z,101065.28
2023-05-02T03:06:46.903Z,101062.03
2023-05-02T03:09:48.258Z,101077.91
2023-05-02T03:12:49.804Z,101082.84
2023-05-02T03:16:23.058Z,101080.09
2023-05-02T03:19:25.731Z,101089.31
2023-05-02T03:22:27.012Z,101105.53
2023-05-02T03:25:28.357Z,101108.56
2023-05-02T03:28:29.827Z,101102.22
2023-05-02T03:31:31.141Z,101100.34
2023-05-02T03:34:33.115Z,101109.56
2023-05-02T03:37:34.674Z,101116.06
2023-05-02T03:40:36.100Z,101128.94
2023-05-02T03:43:37.355Z,101125.88
2023-05-02T03:46:38.680Z,101131.06
2023-05-02T03:49:40.809Z,101137.28
2023-05-02T03:52:42.102Z,101136.69
2023-05-02T03:55:43.393Z,101134.78
2023-05-02T03:58:44.878Z,101145.94
2023-05-02T04:01:48.896Z,101138.88
2023-05-02T04:04:51.281Z,101143.28
2023-05-02T04:07:52.561Z,101150.66
2023-05-02T04:10:53.970Z,101155.66
2023-05-02T04:13:55.266Z,101168.81
2023-05-02T04:16:56.931Z,101168.09
2023-05-02T04:20:00.013Z,101169.22
2023-05-02T04:23:02.342Z,101169.41
2023-05-02T04:26:03.821Z,101165.38
2023-05-02T04:29:05.192Z,101174.06
2023-05-02T04:32:07.054Z,101180.06
2023-05-02T04:35:10.189Z,101184.06
2023-05-02T04:38:11.698Z,101187.28
2023-05-02T04:41:13.212Z,101190.19
2023-05-02T04:44:14.655Z,101186.09
2023-05-02T04:47:16.116Z,101202.94
2023-05-02T04:50:18.264Z,101195.91
2023-05-02T04:53:21.437Z,101206.38
2023-05-02T04:56:22.749Z,101205.63
2023-05-02T04:59:24.021Z,101211.88
2023-05-02T05:02:25.839Z,101223.69
2023-05-02T05:05:28.018Z,101222.91
2023-05-02T05:08:29.349Z,101218.66
2023-05-02T05:11:30.782Z,101227.16
2023-05-02T05:14:32.101Z,101238.72
2023-05-02T05:17:33.768Z,101237.69
2023-05-02T05:20:35.828Z,101244.53
2023-05-02T05:23:37.880Z,101254.78
2023-05-02T05:26:39.288Z,101247.56
2023-05-02T05:29:40.564Z,101253.78
2023-05-02T05:32:42.048Z,101265.56
2023-05-02T05:35:44.184Z,101267.44
2023-05-02T05:38:45.700Z,101267.25
2023-05-02T05:41:47.108Z,101270.97
2023-05-02T05:44:48.537Z,101283.09
2023-05-02T05:47:50.525Z,101286.22
2023-05-02T05:50:53.631Z,101294.47
2023-05-02T05:53:55.061Z,101292.34
2023-05-02T05:56:56.468Z,101295.00
2023-05-02T05:59:57.871Z,101301.22
2023-05-02T06:02:59.610Z,101310.00
2023-05-02T06:06:01.801Z,101320.16
2023-05-02T06:09:03.854Z,101325.69
2023-05-02T06:12:05.552Z,101334.16
2023-05-02T06:15:07.593Z,101340.53
2023-05-02T06:18:09.093Z,101343.34
2023-05-02T06:21:11.201Z,101347.22
2023-05-02T06:24:12.572Z,101342.66
2023-05-02T06:27:13.966Z,101349.38
2023-05-02T06:30:15.393Z,101353.53
2023-05-02T06:33:16.745Z,101371.22
2023-05-02T06:36:18.751Z,101371.22
2023-05-02T06:39:20.046Z,101369.25
2023-05-02T06:42:21.308Z,101375.03
2023-05-02T06:45:22.657Z,101380.75
2023-05-02T06:48:24.082Z,101375.66
2023-05-02T06:51:26.950Z,101387.59
2023-05-02T06:54:28.268Z,101393.97
2023-05-02T06:57:29.735Z,101398.84
2023-05-02T07:00:31.221Z,101399.72
2023-05-02T07:03:32.637Z,101395.16
2023-05-02T07:06:34.920Z,101400.66
2023-05-02T07:09:36.272Z,101403.63
2023-05-02T07:12:38.175Z,101418.03
2023-05-02T07:15:39.660Z,101418.97
2023-05-02T07:18:41.607Z,101418.59
2023-05-02T07:21:43.552Z,101429.38
2023-05-02T07:24:44.913Z,101425.75
2023-05-02T07:27:46.299Z,101436.06
2023-05-02T07:30:47.683Z,101430.50
2023-05-02T07:33:48.921Z,101437.78
2023-05-02T07:36:50.882Z,101438.53
2023-05-02T07:39:52.459Z,101442.25
2023-05-02T07:42:53.776Z,101448.13
2023-05-02T07:45:55.377Z,101454.28
2023-05-02T07:48:56.844Z,101458.94
2023-05-02T07:51:58.785Z,101461.13
2023-05-02T07:55:00.420Z,101462.78
2023-05-02T07:58:01.786Z,101469.72
2023-05-02T08:01:03.460Z,101460.59
2023-05-02T08:04:05.356Z,101473.56
2023-05-02T08:07:07.556Z,101483.25
2023-05-02T08:10:10.143Z,101489.78
2023-05-02T08:13:11.762Z,101489.53
2023-05-02T08:16:13.280Z,101496.13
2023-05-02T08:19:15.158Z,101497.53
2023-05-02T08:22:17.099Z,101501.38
2023-05-02T08:25:18.548Z,101510.50
2023-05-02T08:28:19.870Z,101511.25
2023-05-02T08:31:21.596Z,101517.75
2023-05-02T08:34:22.880Z,101514.59
2023-05-02T08:37:25.226Z,101521.66
2023-05-02T08:40:38.183Z,101524.06
2023-05-02T08:43:44.058Z,101527.88
2023-05-02T08:46:46.238Z,101531.00
2023-05-02T08:49:49.686Z,101534.50
2023-05-02T08:52:52.536Z,101545.63
2023-05-02T08:55:54.020Z,101546.16
2023-05-02T08:58:55.651Z,101550.09
2023-05-02T09:02:00.762Z,101561.44
2023-05-02T09:05:07.306Z,101565.78
2023-05-02T09:08:09.392Z,101577.03
2023-05-02T09:11:12.372Z,101576.97
2023-05-02T09:14:14.768Z,101588.53
2023-05-02T09:17:16.278Z,101589.34
2023-05-02T09:20:17.771Z,101593.81
2023-05-02T09:23:19.932Z,101598.69
2023-05-02T09:26:22.080Z,101608.66
2023-05-02T09:29:23.682Z,101602.56
2023-05-02T09:32:44.689Z,101602.78
2023-05-02T09:35:53.502Z,101612.09
2023-05-02T09:39:10.112Z,101613.19
2023-05-02T09:42:11.527Z,101625.19
2023-05-02T09:45:23.229Z,101618.19
2023-05-02T09:48:25.879Z,101614.00
2023-05-02T09:51:27.187Z,101632.88
2023-05-02T09:54:38.135Z,101634.84
2023-05-02T09:57:40.095Z,101631.59
2023-05-02T10:00:43.410Z,101642.31
2023-05-02T10:03:47.519Z,101648.91
2023-05-02T10:06:51.747Z,101658.34
2023-05-02T10:09:58.261Z,101671.81
2023-05-02T10:13:01.125Z,101676.94
2023-05-02T10:16:04.444Z,101677.72
2023-05-02T10:19:09.742Z,101690.38
2023-05-02T10:22:12.514Z,101701.44
2023-05-02T10:25:14.964Z,101703.06
2023-05-02T10:28:16.670Z,101712.19
2023-05-02T10:31:18.716Z,101717.41
2023-05-02T10:34:21.184Z,101727.41
2023-05-02T10:37:23.777Z,101731.56
2023-05-02T10:40:26.124Z,101736.84
2023-05-02T10:43:30.623Z,101738.34
2023-05-02T10:46:33.449Z,101747.88
2023-05-02T10:49:49.815Z,101756.13
2023-05-02T10:52:51.165Z,101767.53
2023-05-02T10:56:13.218Z,101771.13
2023-05-02T10:59:36.187Z,101768.50
2023-05-02T11:02:48.581Z,101760.72
2023-05-02T11:06:05.455Z,101762.00
2023-05-02T11:09:35.177Z,101758.09
2023-05-02T11:12:45.039Z,101763.31
2023-05-02T11:15:59.092Z,101765.22
2023-05-02T11:19:01.124Z,101771.50
2023-05-02T11:22:32.590Z,101771.25
2023-05-02T11:25:36.225Z,101774.00
2023-05-02T11:28:43.778Z,101775.28
2023-05-02T11:32:03.525Z,101773.91
2023-05-02T11:35:06.522Z,101774.13
2023-05-02T11:38:11.404Z,101775.94
2023-05-02T11:41:13.140Z,101784.22
2023-05-02T11:44:15.274Z,101789.38
2023-05-02T11:47:16.602Z,101793.91
2023-05-02T11:50:18.152Z,101791.06
2023-05-02T11:53:22.409Z,101798.91
2023-05-02T11:56:25.807Z,101803.78
2023-05-02T11:59:27.888Z,101812.53
2023-05-02T12:02:36.235Z,101808.94
2023-05-02T12:05:37.630Z,101808.97
2023-05-02T12:08:40.149Z,101815.56
2023-05-02T12:11:41.457Z,101815.75
2023-05-02T12:14:43.722Z,101829.94
2023-05-02T12:17:48.161Z,101826.91
2023-05-02T12:20:51.417Z,101826.72
2023-05-02T12:23:53.349Z,101834.66
2023-05-02T12:27:09.198Z,101841.00
2023-05-02T12:30:25.392Z,101853.09
2023-05-02T12:33:26.755Z,101845.16
2023-05-02T12:36:28.925Z,101844.44
2023-05-02T12:39:37.549Z,101853.28
2023-05-02T12:42:39.081Z,101852.81
2023-05-02T12:45:41.257Z,101846.41
2023-05-02T12:48:44.207Z,101849.28
2023-05-02T12:51:55.001Z,101852.94
2023-05-02T12:55:17.403Z,101850.22
2023-05-02T12:58:18.945Z,101862.03
2023-05-02T13:01:20.954Z,101862.09
2023-05-02T13:04:22.494Z,101876.59
2023-05-02T13:07:24.025Z,101864.66
2023-05-02T13:10:26.059Z,101860.75
2023-05-02T13:13:27.494Z,101875.31
2023-05-02T13:16:29.559Z,101878.88
2023-05-02T13:19:30.879Z,101878.47
2023-05-02T13:22:32.210Z,101891.88
2023-05-02T13:25:33.693Z,101889.41
2023-05-02T13:28:36.620Z,101886.34
2023-05-02T13:31:38.899Z,101898.91
2023-05-02T13:34:40.996Z,101909.56
2023-05-02T13:37:42.279Z,101897.41
2023-05-02T13:40:43.733Z,101903.47
2023-05-02T13:43:45.562Z,101920.72
2023-05-02T13:46:48.437Z,101924.78
2023-05-02T13:49:50.117Z,101918.75
2023-05-02T13:52:51.539Z,101923.53
2023-05-02T13:55:53.072Z,101925.22
2023-05-02T13:58:54.447Z,101924.06
2023-05-02T14:01:56.532Z,101938.66
2023-05-02T14:04:57.869Z,101931.22
2023-05-02T14:07:59.144Z,101939.66
2023-05-02T14:11:00.428Z,101937.50
2023-05-02T14:14:01.900Z,101953.44
2023-05-02T14:17:04.633Z,101957.19
2023-05-02T14:20:09.677Z,101961.31
2023-05-02T14:23:11.298Z,101971.97
2023-05-02T14:26:13.294Z,101965.22
2023-05-02T14:29:14.769Z,101976.63
2023-05-02T14:32:17.049Z,101978.41
2023-05-02T14:35:18.587Z,101966.31
2023-05-02T14:38:19.884Z,101986.16
2023-05-02T14:41:21.306Z,101988.78
2023-05-02T14:44:22.825Z,101983.66
2023-05-02T14:47:24.788Z,101984.75
2023-05-02T14:50:26.228Z,101986.84
2023-05-02T14:53:27.514Z,101977.78
2023-05-02T14:56:28.922Z,101982.34
2023-05-02T14:59:30.657Z,101976.91
2023-05-02T15:02:32.793Z,101970.00
2023-05-02T15:05:35.529Z,101969.41
2023-05-02T15:08:38.060Z,101971.78
2023-05-02T15:11:40.471Z,101970.88
2023-05-02T15:14:41.923Z,101971.88
2023-05-02T15:17:44.300Z,101969.69
2023-05-02T15:20:45.651Z,101970.41
2023-05-02T15:23:47.069Z,101968.63
2023-05-02T15:26:48.624Z,101968.28
2023-05-02T15:29:50.364Z,101971.81
2023-05-02T15:32:52.479Z,101973.41
2023-05-02T15:35:55.517Z,101973.09
2023-05-02T15:38:56.955Z,101971.44
2023-05-02T15:41:58.217Z,101986.06
2023-05-02T15:44:59.605Z,101978.81
2023-05-02T15:48:01.741Z,101982.25
2023-05-02T15:51:04.665Z,101988.41
2023-05-02T15:54:06.316Z,101978.97
2023-05-02T15:57:07.736Z,101987.81
2023-05-02T16:00:15.851Z,101978.50
2023-05-02T16:03:17.842Z,101987.78
2023-05-02T16:06:19.419Z,101992.00
2023-05-02T16:09:20.733Z,101996.66
2023-05-02T16:12:22.047Z,101994.16
2023-05-02T16:15:23.678Z,101988.91
2023-05-02T16:18:27.380Z,101992.16
2023-05-02T16:21:28.685Z,101999.66
2023-05-02T16:24:29.968Z,101996.44
2023-05-02T16:27:32.793Z,101992.38
2023-05-02T16:30:45.838Z,102002.06
2023-05-02T16:33:48.745Z,101993.47
2023-05-02T16:36:50.706Z,101998.59
2023-05-02T16:39:52.035Z,102000.88
2023-05-02T16:42:53.539Z,102004.81
2023-05-02T16:46:01.384Z,102001.13
2023-05-02T16:49:03.442Z,101992.25
2023-05-02T16:52:05.126Z,101995.50
2023-05-02T16:55:06.879Z,101999.09
2023-05-02T16:58:08.177Z,101996.81
2023-05-02T17:01:09.779Z,101996.91
2023-05-02T17:04:11.838Z,102001.84
2023-05-02T17:07:13.139Z,102005.22
2023-05-02T17:10:14.561Z,102012.13
2023-05-02T17:13:15.932Z,102006.88
2023-05-02T17:16:17.844Z,102003.88
2023-05-02T17:19:19.948Z,102011.66
2023-05-02T17:22:21.274Z,102005.56
2023-05-02T17:25:22.765Z,102013.94
2023-05-02T17:28:24.060Z,102009.84
2023-05-02T17:31:25.427Z,102014.50
2023-05-02T17:34:29.538Z,102024.66
2023-05-02T17:37:32.104Z,102034.97
2023-05-02T17:40:34.142Z,102025.88
2023-05-02T17:43:37.382Z,102028.50
2023-05-02T17:46:38.702Z,102024.31
2023-05-02T17:49:41.189Z,102040.31
2023-05-02T17:52:42.637Z,102046.63
2023-05-02T17:55:43.952Z,102043.72
2023-05-02T17:58:45.469Z,102050.66
2023-05-02T18:01:46.804Z,102050.31
2023-05-02T18:04:49.238Z,102049.00
2023-05-02T18:07:50.489Z,102051.00
2023-05-02T18:10:51.911Z,102056.03
2023-05-02T18:13:53.212Z,102055.91
2023-05-02T18:16:55.628Z,102060.34
2023-05-02T18:19:57.853Z,102061.41
2023-05-02T18:23:00.491Z,102063.97
2023-05-02T18:26:01.939Z,102066.69
2023-05-02T18:29:03.200Z,102066.91
2023-05-02T18:32:04.629Z,102062.84
2023-05-02T18:35:10.401Z,102063.44
2023-05-02T18:38:12.028Z,102076.59
2023-05-02T18:41:13.247Z,102073.63
2023-05-02T18:44:14.519Z,102076.38
2023-05-02T18:47:16.497Z,102068.44
2023-05-02T18:50:18.598Z,102072.97
2023-05-02T18:53:22.152Z,102079.13
2023-05-02T18:56:24.684Z,102081.22
2023-05-02T18:59:26.134Z,102090.13
2023-05-02T19:02:27.479Z,102091.44
2023-05-02T19:05:29.789Z,102095.44
2023-05-02T19:08:31.595Z,102092.53
2023-05-02T19:11:33.082Z,102101.53
2023-05-02T19:14:35.306Z,102106.44
2023-05-02T19:17:36.711Z,102115.97
2023-05-02T19:20:38.880Z,102120.47
2023-05-02T19:23:40.538Z,102127.34
2023-05-02T19:26:41.965Z,102127.59
2023-05-02T19:29:43.662Z,102130.63
2023-05-02T19:32:44.980Z,102128.72
2023-05-02T19:35:47.328Z,102142.78
2023-05-02T19:38:49.789Z,102138.66
2023-05-02T19:41:51.266Z,102148.97
2023-05-02T19:44:52.616Z,102154.94
2023-05-02T19:47:53.969Z,102159.59
2023-05-02T19:50:56.087Z,102156.03
2023-05-02T19:53:57.928Z,102165.56
2023-05-02T19:56:59.417Z,102166.19
2023-05-02T20:00:00.770Z,102176.22
2023-05-02T20:03:02.913Z,102168.22
2023-05-02T20:06:05.330Z,102176.34
2023-05-02T20:09:06.718Z,102170.28
2023-05-02T20:12:08.249Z,102170.25
2023-05-02T20:15:10.174Z,102180.81
2023-05-02T20:18:12.784Z,102181.66
2023-05-02T20:21:15.592Z,102192.25
2023-05-02T20:24:17.029Z,102180.28
2023-05-02T20:27:18.440Z,102191.44
2023-05-02T20:30:19.988Z,102192.94
2023-05-02T20:33:25.061Z,102193.59
2023-05-02T20:36:30.092Z,102195.09
2023-05-02T20:39:31.700Z,102199.38
2023-05-02T20:42:33.018Z,102209.06
2023-05-02T20:45:34.582Z,102206.16
2023-05-02T20:48:35.888Z,102211.63
2023-05-02T20:51:37.951Z,102212.28
2023-05-02T20:54:39.402Z,102218.16
2023-05-02T20:57:40.948Z,102219.41
2023-05-02T21:00:42.303Z,102218.59
2023-05-02T21:03:43.782Z,102220.38
2023-05-02T21:06:46.561Z,102215.59
2023-05-02T21:09:48.252Z,102225.31
2023-05-02T21:12:49.598Z,102224.63
2023-05-02T21:15:51.074Z,102222.97
2023-05-02T21:18:52.599Z,102224.94
2023-05-02T21:21:54.556Z,102219.00
2023-05-02T21:24:56.051Z,102233.38
2023-05-02T21:27:57.559Z,102229.59
2023-05-02T21:31:00.816Z,102231.47
2023-05-02T21:34:02.256Z,102232.97
2023-05-02T21:37:04.214Z,102232.13
2023-05-02T21:40:07.023Z,102236.09
2023-05-02T21:43:08.319Z,102235.94
2023-05-02T21:46:10.711Z,102236.75
2023-05-02T21:49:11.975Z,102228.75
2023-05-02T21:52:14.029Z,102231.22
2023-05-02T21:55:15.637Z,102236.53
2023-05-02T21:58:16.915Z,102239.16
2023-05-02T22:01:18.348Z,102227.53
2023-05-02T22:04:19.875Z,102233.41
2023-05-02T22:07:21.943Z,102235.13
2023-05-02T22:10:23.285Z,102246.50
2023-05-02T22:13:24.786Z,102240.28
2023-05-02T22:16:26.292Z,102243.31
2023-05-02T22:19:27.673Z,102243.75
2023-05-02T22:22:29.817Z,102241.69
2023-05-02T22:25:31.323Z,102240.41
2023-05-02T22:28:32.911Z,102251.16
2023-05-02T22:31:34.212Z,102255.41
2023-05-02T22:34:35.613Z,102262.78
2023-05-02T22:37:37.575Z,102267.81
2023-05-02T22:40:38.989Z,102263.63
2023-05-02T22:43:40.235Z,102261.94
2023-05-02T22:46:41.696Z,102263.00
2023-05-02T22:49:43.810Z,102268.06
2023-05-02T22:52:46.325Z,102275.25
2023-05-02T22:55:47.855Z,102280.75
2023-05-02T22:58:49.198Z,102268.53
2023-05-02T23:01:50.740Z,102277.38
2023-05-02T23:04:52.074Z,102277.63
2023-05-02T23:07:54.815Z,102286.91
2023-05-02T23:10:56.257Z,102288.63
2023-05-02T23:13:57.658Z,102283.75
2023-05-02T23:17:00.879Z,102286.50
2023-05-02T23:20:02.533Z,102287.34
2023-05-02T23:23:05.070Z,102290.53
2023-05-02T23:26:06.638Z,102293.03
2023-05-02T23:29:08.035Z,102293.25
2023-05-02T23:32:09.399Z,102290.50
2023-05-02T23:35:11.787Z,102298.56
2023-05-02T23:38:14.013Z,102297.88
2023-05-02T23:41:15.515Z,102295.81
2023-05-02T23:44:16.937Z,102297.06
2023-05-02T23:47:18.838Z,102299.41
2023-05-02T23:50:20.215Z,102290.50
2023-05-02T23:53:22.148Z,102300.88
2023-05-02T23:56:23.582Z,102287.59
2023-05-02T23:59:24.876Z,102297.69
